sensor_id;sensor_type;location;lat;lon;timestamp;P1;durP1;ratioP1;P2;durP2;ratioP2
56114;SDS011;41988;53.020;6.576;2022-12-19T00:01:07;39.97;;;20.97;;
56114;SDS011;41988;53.020;6.576;2022-12-19T00:03:59;41.53;;;21.63;;
56114;SDS011;41988;53.020;6.576;2022-12-19T00:06:45;40.23;;;21.07;;
56114;SDS011;41988;53.020;6.576;2022-12-19T00:09:30;38.07;;;17.43;;
56114;SDS011;41988;53.020;6.576;2022-12-19T00:12:14;42.23;;;21.30;;
56114;SDS011;41988;53.020;6.576;2022-12-19T00:14:59;47.57;;;22.40;;
56114;SDS011;41988;53.020;6.576;2022-12-19T00:17:44;40.80;;;20.70;;
56114;SDS011;41988;53.020;6.576;2022-12-19T00:20:28;43.67;;;23.10;;
56114;SDS011;41988;53.020;6.576;2022-12-19T00:23:13;42.50;;;21.23;;
56114;SDS011;41988;53.020;6.576;2022-12-19T00:26:05;39.63;;;20.63;;
56114;SDS011;41988;53.020;6.576;2022-12-19T00:28:57;46.03;;;21.43;;
56114;SDS011;41988;53.020;6.576;2022-12-19T00:31:43;43.87;;;22.10;;
56114;SDS011;41988;53.020;6.576;2022-12-19T00:34:27;44.47;;;22.60;;
56114;SDS011;41988;53.020;6.576;2022-12-19T00:37:12;43.20;;;21.00;;
56114;SDS011;41988;53.020;6.576;2022-12-19T00:39:56;37.83;;;21.40;;
56114;SDS011;41988;53.020;6.576;2022-12-19T00:42:41;42.90;;;19.97;;
56114;SDS011;41988;53.020;6.576;2022-12-19T00:45:25;41.40;;;20.17;;
56114;SDS011;41988;53.020;6.576;2022-12-19T00:48:10;39.37;;;20.67;;
56114;SDS011;41988;53.020;6.576;2022-12-19T00:50:58;40.27;;;20.70;;
56114;SDS011;41988;53.020;6.576;2022-12-19T00:53:44;40.80;;;21.50;;
56114;SDS011;41988;53.020;6.576;2022-12-19T00:56:30;39.23;;;20.70;;
56114;SDS011;41988;53.020;6.576;2022-12-19T00:59:15;40.00;;;21.53;;
56114;SDS011;41988;53.020;6.576;2022-12-19T01:02:00;38.07;;;19.37;;
56114;SDS011;41988;53.020;6.576;2022-12-19T01:04:44;40.30;;;21.43;;
56114;SDS011;41988;53.020;6.576;2022-12-19T01:07:29;37.93;;;19.97;;
56114;SDS011;41988;53.020;6.576;2022-12-19T01:10:13;38.50;;;20.40;;
56114;SDS011;41988;53.020;6.576;2022-12-19T01:12:58;41.90;;;21.10;;
56114;SDS011;41988;53.020;6.576;2022-12-19T01:15:43;35.80;;;19.57;;
56114;SDS011;41988;53.020;6.576;2022-12-19T01:18:27;38.13;;;18.40;;
56114;SDS011;41988;53.020;6.576;2022-12-19T01:21:12;38.57;;;20.73;;
56114;SDS011;41988;53.020;6.576;2022-12-19T01:23:56;35.53;;;17.57;;
56114;SDS011;41988;53.020;6.576;2022-12-19T01:26:41;39.37;;;20.63;;
56114;SDS011;41988;53.020;6.576;2022-12-19T01:29:25;39.83;;;20.63;;
56114;SDS011;41988;53.020;6.576;2022-12-19T01:32:10;37.87;;;19.50;;
56114;SDS011;41988;53.020;6.576;2022-12-19T01:34:54;38.07;;;20.30;;
56114;SDS011;41988;53.020;6.576;2022-12-19T01:37:39;36.63;;;18.30;;
56114;SDS011;41988;53.020;6.576;2022-12-19T01:40:23;40.63;;;19.80;;
56114;SDS011;41988;53.020;6.576;2022-12-19T01:43:11;37.57;;;20.17;;
56114;SDS011;41988;53.020;6.576;2022-12-19T01:46:02;41.67;;;21.83;;
56114;SDS011;41988;53.020;6.576;2022-12-19T01:48:48;39.43;;;19.70;;
56114;SDS011;41988;53.020;6.576;2022-12-19T01:51:34;41.40;;;20.67;;
56114;SDS011;41988;53.020;6.576;2022-12-19T01:54:21;36.57;;;19.30;;
56114;SDS011;41988;53.020;6.576;2022-12-19T01:57:10;34.50;;;19.27;;
56114;SDS011;41988;53.020;6.576;2022-12-19T01:59:56;40.77;;;19.73;;
56114;SDS011;41988;53.020;6.576;2022-12-19T02:02:43;36.23;;;18.73;;
56114;SDS011;41988;53.020;6.576;2022-12-19T02:05:34;39.40;;;19.00;;
56114;SDS011;41988;53.020;6.576;2022-12-19T02:08:19;38.30;;;18.70;;
56114;SDS011;41988;53.020;6.576;2022-12-19T02:11:04;37.63;;;19.37;;
56114;SDS011;41988;53.020;6.576;2022-12-19T02:13:49;39.50;;;21.17;;
56114;SDS011;41988;53.020;6.576;2022-12-19T02:20:04;36.27;;;18.57;;
56114;SDS011;41988;53.020;6.576;2022-12-19T02:25:47;44.33;;;20.83;;
56114;SDS011;41988;53.020;6.576;2022-12-19T02:28:50;39.20;;;21.50;;
56114;SDS011;41988;53.020;6.576;2022-12-19T02:34:48;44.57;;;21.97;;
56114;SDS011;41988;53.020;6.576;2022-12-19T02:37:46;47.73;;;24.57;;
56114;SDS011;41988;53.020;6.576;2022-12-19T02:40:33;54.33;;;24.73;;
56114;SDS011;41988;53.020;6.576;2022-12-19T02:43:24;50.60;;;25.60;;
56114;SDS011;41988;53.020;6.576;2022-12-19T02:46:13;51.70;;;24.00;;
56114;SDS011;41988;53.020;6.576;2022-12-19T02:48:59;54.27;;;22.43;;
56114;SDS011;41988;53.020;6.576;2022-12-19T02:51:43;54.47;;;24.70;;
56114;SDS011;41988;53.020;6.576;2022-12-19T02:54:28;50.60;;;25.07;;
56114;SDS011;41988;53.020;6.576;2022-12-19T03:00:17;57.00;;;25.80;;
56114;SDS011;41988;53.020;6.576;2022-12-19T03:03:09;57.33;;;25.87;;
56114;SDS011;41988;53.020;6.576;2022-12-19T03:09:45;62.60;;;27.43;;
56114;SDS011;41988;53.020;6.576;2022-12-19T03:12:45;60.97;;;26.77;;
56114;SDS011;41988;53.020;6.576;2022-12-19T03:15:34;64.43;;;28.40;;
56114;SDS011;41988;53.020;6.576;2022-12-19T03:18:20;67.87;;;29.17;;
56114;SDS011;41988;53.020;6.576;2022-12-19T03:21:16;61.37;;;28.47;;
56114;SDS011;41988;53.020;6.576;2022-12-19T03:24:03;64.77;;;30.03;;
56114;SDS011;41988;53.020;6.576;2022-12-19T03:30:11;64.67;;;27.77;;
56114;SDS011;41988;53.020;6.576;2022-12-19T03:32:56;60.60;;;28.67;;
56114;SDS011;41988;53.020;6.576;2022-12-19T03:35:41;64.93;;;28.53;;
56114;SDS011;41988;53.020;6.576;2022-12-19T03:38:27;71.00;;;30.27;;
56114;SDS011;41988;53.020;6.576;2022-12-19T03:41:13;67.57;;;29.90;;
56114;SDS011;41988;53.020;6.576;2022-12-19T03:43:59;68.67;;;29.23;;
56114;SDS011;41988;53.020;6.576;2022-12-19T03:46:46;68.13;;;30.37;;
56114;SDS011;41988;53.020;6.576;2022-12-19T03:49:36;75.17;;;31.83;;
56114;SDS011;41988;53.020;6.576;2022-12-19T03:52:33;66.33;;;30.23;;
56114;SDS011;41988;53.020;6.576;2022-12-19T03:56:19;54.57;;;23.90;;
56114;SDS011;41988;53.020;6.576;2022-12-19T03:58:51;69.03;;;30.60;;
56114;SDS011;41988;53.020;6.576;2022-12-19T04:01:58;64.27;;;30.20;;
56114;SDS011;41988;53.020;6.576;2022-12-19T04:04:45;72.93;;;29.90;;
56114;SDS011;41988;53.020;6.576;2022-12-19T04:07:30;69.47;;;31.00;;
56114;SDS011;41988;53.020;6.576;2022-12-19T04:10:17;73.80;;;32.60;;
56114;SDS011;41988;53.020;6.576;2022-12-19T04:13:03;72.23;;;32.13;;
56114;SDS011;41988;53.020;6.576;2022-12-19T04:15:59;66.83;;;31.20;;
56114;SDS011;41988;53.020;6.576;2022-12-19T04:22:20;68.60;;;32.77;;
56114;SDS011;41988;53.020;6.576;2022-12-19T04:25:13;64.33;;;32.40;;
56114;SDS011;41988;53.020;6.576;2022-12-19T04:28:02;74.07;;;32.67;;
56114;SDS011;41988;53.020;6.576;2022-12-19T04:30:54;65.05;;;31.48;;
56114;SDS011;41988;53.020;6.576;2022-12-19T04:33:39;69.50;;;33.00;;
56114;SDS011;41988;53.020;6.576;2022-12-19T04:36:24;75.07;;;33.30;;
56114;SDS011;41988;53.020;6.576;2022-12-19T04:39:09;79.87;;;35.67;;
56114;SDS011;41988;53.020;6.576;2022-12-19T04:41:53;73.70;;;34.67;;
56114;SDS011;41988;53.020;6.576;2022-12-19T04:44:38;77.17;;;35.33;;
56114;SDS011;41988;53.020;6.576;2022-12-19T04:47:22;72.67;;;33.87;;
56114;SDS011;41988;53.020;6.576;2022-12-19T04:50:07;72.60;;;35.27;;
56114;SDS011;41988;53.020;6.576;2022-12-19T04:52:52;82.30;;;36.47;;
56114;SDS011;41988;53.020;6.576;2022-12-19T04:55:40;75.90;;;33.17;;
56114;SDS011;41988;53.020;6.576;2022-12-19T04:58:24;75.00;;;34.47;;
56114;SDS011;41988;53.020;6.576;2022-12-19T05:01:09;75.07;;;33.90;;
56114;SDS011;41988;53.020;6.576;2022-12-19T05:03:56;76.27;;;33.83;;
56114;SDS011;41988;53.020;6.576;2022-12-19T05:06:40;73.87;;;32.07;;
56114;SDS011;41988;53.020;6.576;2022-12-19T05:09:25;70.27;;;33.50;;
56114;SDS011;41988;53.020;6.576;2022-12-19T05:12:10;74.03;;;32.73;;
56114;SDS011;41988;53.020;6.576;2022-12-19T05:14:54;75.57;;;33.87;;
56114;SDS011;41988;53.020;6.576;2022-12-19T05:17:39;83.47;;;34.97;;
56114;SDS011;41988;53.020;6.576;2022-12-19T05:20:23;74.67;;;35.90;;
56114;SDS011;41988;53.020;6.576;2022-12-19T05:23:07;77.87;;;34.23;;
56114;SDS011;41988;53.020;6.576;2022-12-19T05:25:52;85.60;;;35.70;;
56114;SDS011;41988;53.020;6.576;2022-12-19T05:28:37;78.70;;;33.53;;
56114;SDS011;41988;53.020;6.576;2022-12-19T05:31:21;87.50;;;34.57;;
56114;SDS011;41988;53.020;6.576;2022-12-19T05:34:06;84.67;;;35.17;;
56114;SDS011;41988;53.020;6.576;2022-12-19T05:36:50;83.47;;;35.10;;
56114;SDS011;41988;53.020;6.576;2022-12-19T05:39:35;79.40;;;34.87;;
56114;SDS011;41988;53.020;6.576;2022-12-19T05:42:19;72.23;;;32.87;;
56114;SDS011;41988;53.020;6.576;2022-12-19T05:45:04;64.13;;;30.67;;
56114;SDS011;41988;53.020;6.576;2022-12-19T05:47:48;72.07;;;32.30;;
56114;SDS011;41988;53.020;6.576;2022-12-19T05:50:33;79.10;;;31.47;;
56114;SDS011;41988;53.020;6.576;2022-12-19T05:53:18;66.40;;;31.23;;
56114;SDS011;41988;53.020;6.576;2022-12-19T05:56:03;64.23;;;31.67;;
56114;SDS011;41988;53.020;6.576;2022-12-19T05:58:49;67.43;;;31.70;;
56114;SDS011;41988;53.020;6.576;2022-12-19T06:01:34;73.87;;;30.73;;
56114;SDS011;41988;53.020;6.576;2022-12-19T06:04:18;68.30;;;33.80;;
56114;SDS011;41988;53.020;6.576;2022-12-19T06:07:03;70.50;;;29.67;;
56114;SDS011;41988;53.020;6.576;2022-12-19T06:09:48;70.60;;;30.77;;
56114;SDS011;41988;53.020;6.576;2022-12-19T06:12:32;67.77;;;27.50;;
56114;SDS011;41988;53.020;6.576;2022-12-19T06:15:17;63.90;;;27.67;;
56114;SDS011;41988;53.020;6.576;2022-12-19T06:18:01;59.30;;;28.37;;
56114;SDS011;41988;53.020;6.576;2022-12-19T06:20:54;58.67;;;27.77;;
56114;SDS011;41988;53.020;6.576;2022-12-19T06:23:41;62.40;;;27.93;;
56114;SDS011;41988;53.020;6.576;2022-12-19T06:26:26;59.87;;;25.77;;
56114;SDS011;41988;53.020;6.576;2022-12-19T06:29:10;59.07;;;25.93;;
56114;SDS011;41988;53.020;6.576;2022-12-19T06:31:55;61.43;;;26.47;;
56114;SDS011;41988;53.020;6.576;2022-12-19T06:34:39;54.13;;;23.37;;
56114;SDS011;41988;53.020;6.576;2022-12-19T06:37:24;55.70;;;23.67;;
56114;SDS011;41988;53.020;6.576;2022-12-19T06:40:09;54.97;;;25.40;;
56114;SDS011;41988;53.020;6.576;2022-12-19T06:43:14;50.07;;;23.60;;
56114;SDS011;41988;53.020;6.576;2022-12-19T06:45:58;47.83;;;23.17;;
56114;SDS011;41988;53.020;6.576;2022-12-19T06:48:43;44.10;;;21.80;;
56114;SDS011;41988;53.020;6.576;2022-12-19T06:51:27;51.73;;;21.87;;
56114;SDS011;41988;53.020;6.576;2022-12-19T06:54:13;45.67;;;22.43;;
56114;SDS011;41988;53.020;6.576;2022-12-19T06:56:58;42.53;;;22.13;;
56114;SDS011;41988;53.020;6.576;2022-12-19T06:59:42;45.73;;;20.80;;
56114;SDS011;41988;53.020;6.576;2022-12-19T07:02:27;44.70;;;20.27;;
56114;SDS011;41988;53.020;6.576;2022-12-19T07:05:14;44.57;;;20.53;;
56114;SDS011;41988;53.020;6.576;2022-12-19T07:07:59;47.37;;;20.77;;
56114;SDS011;41988;53.020;6.576;2022-12-19T07:10:46;46.43;;;20.50;;
56114;SDS011;41988;53.020;6.576;2022-12-19T07:13:31;46.47;;;22.27;;
56114;SDS011;41988;53.020;6.576;2022-12-19T07:16:16;44.63;;;20.30;;
56114;SDS011;41988;53.020;6.576;2022-12-19T07:19:00;41.33;;;19.97;;
56114;SDS011;41988;53.020;6.576;2022-12-19T07:21:45;42.47;;;21.53;;
56114;SDS011;41988;53.020;6.576;2022-12-19T07:24:30;39.73;;;19.97;;
56114;SDS011;41988;53.020;6.576;2022-12-19T07:27:15;42.27;;;18.27;;
56114;SDS011;41988;53.020;6.576;2022-12-19T07:30:00;34.40;;;18.13;;
56114;SDS011;41988;53.020;6.576;2022-12-19T07:32:45;42.27;;;19.97;;
56114;SDS011;41988;53.020;6.576;2022-12-19T07:35:30;38.00;;;20.03;;
56114;SDS011;41988;53.020;6.576;2022-12-19T07:38:14;41.10;;;20.30;;
56114;SDS011;41988;53.020;6.576;2022-12-19T07:40:59;36.80;;;19.00;;
56114;SDS011;41988;53.020;6.576;2022-12-19T07:43:44;35.40;;;18.97;;
56114;SDS011;41988;53.020;6.576;2022-12-19T07:46:29;43.73;;;19.33;;
56114;SDS011;41988;53.020;6.576;2022-12-19T07:49:14;37.93;;;17.80;;
56114;SDS011;41988;53.020;6.576;2022-12-19T07:51:58;41.87;;;18.07;;
56114;SDS011;41988;53.020;6.576;2022-12-19T07:54:42;41.63;;;19.37;;
56114;SDS011;41988;53.020;6.576;2022-12-19T07:57:27;42.30;;;21.30;;
56114;SDS011;41988;53.020;6.576;2022-12-19T08:00:12;38.60;;;18.73;;
56114;SDS011;41988;53.020;6.576;2022-12-19T08:02:59;43.83;;;19.63;;
56114;SDS011;41988;53.020;6.576;2022-12-19T08:05:44;38.50;;;18.97;;
56114;SDS011;41988;53.020;6.576;2022-12-19T08:08:28;43.50;;;19.37;;
56114;SDS011;41988;53.020;6.576;2022-12-19T08:11:14;38.43;;;19.07;;
56114;SDS011;41988;53.020;6.576;2022-12-19T08:14:00;40.23;;;19.23;;
56114;SDS011;41988;53.020;6.576;2022-12-19T08:16:45;37.10;;;18.03;;
56114;SDS011;41988;53.020;6.576;2022-12-19T08:19:30;38.80;;;19.80;;
56114;SDS011;41988;53.020;6.576;2022-12-19T08:22:14;39.23;;;18.50;;
56114;SDS011;41988;53.020;6.576;2022-12-19T08:24:59;38.70;;;18.47;;
56114;SDS011;41988;53.020;6.576;2022-12-19T08:27:43;37.70;;;16.93;;
56114;SDS011;41988;53.020;6.576;2022-12-19T08:30:28;37.83;;;16.83;;
56114;SDS011;41988;53.020;6.576;2022-12-19T08:33:12;36.60;;;17.20;;
56114;SDS011;41988;53.020;6.576;2022-12-19T08:35:57;35.30;;;17.27;;
56114;SDS011;41988;53.020;6.576;2022-12-19T08:38:41;34.83;;;17.17;;
56114;SDS011;41988;53.020;6.576;2022-12-19T08:41:26;40.80;;;18.20;;
56114;SDS011;41988;53.020;6.576;2022-12-19T08:44:10;32.53;;;16.27;;
56114;SDS011;41988;53.020;6.576;2022-12-19T08:46:55;36.50;;;18.80;;
56114;SDS011;41988;53.020;6.576;2022-12-19T08:49:40;30.27;;;16.63;;
56114;SDS011;41988;53.020;6.576;2022-12-19T08:52:25;36.70;;;18.33;;
56114;SDS011;41988;53.020;6.576;2022-12-19T08:55:09;31.67;;;15.03;;
56114;SDS011;41988;53.020;6.576;2022-12-19T08:57:54;35.63;;;17.90;;
56114;SDS011;41988;53.020;6.576;2022-12-19T09:00:38;33.93;;;16.70;;
56114;SDS011;41988;53.020;6.576;2022-12-19T09:03:23;31.37;;;16.73;;
56114;SDS011;41988;53.020;6.576;2022-12-19T09:06:09;34.93;;;18.40;;
56114;SDS011;41988;53.020;6.576;2022-12-19T09:08:54;34.87;;;17.10;;
56114;SDS011;41988;53.020;6.576;2022-12-19T09:11:38;36.17;;;17.67;;
56114;SDS011;41988;53.020;6.576;2022-12-19T09:14:23;29.45;;;17.25;;
56114;SDS011;41988;53.020;6.576;2022-12-19T09:17:07;36.67;;;18.43;;
56114;SDS011;41988;53.020;6.576;2022-12-19T09:19:52;29.67;;;16.23;;
56114;SDS011;41988;53.020;6.576;2022-12-19T09:22:36;32.33;;;17.50;;
56114;SDS011;41988;53.020;6.576;2022-12-19T09:25:21;35.47;;;17.63;;
56114;SDS011;41988;53.020;6.576;2022-12-19T09:28:06;31.98;;;16.77;;
56114;SDS011;41988;53.020;6.576;2022-12-19T09:30:57;32.58;;;16.52;;
56114;SDS011;41988;53.020;6.576;2022-12-19T09:33:42;36.23;;;17.03;;
56114;SDS011;41988;53.020;6.576;2022-12-19T09:36:27;34.63;;;18.90;;
56114;SDS011;41988;53.020;6.576;2022-12-19T09:39:12;35.88;;;19.75;;
56114;SDS011;41988;53.020;6.576;2022-12-19T09:47:32;37.92;;;19.85;;
56114;SDS011;41988;53.020;6.576;2022-12-19T09:50:42;37.05;;;20.42;;
56114;SDS011;41988;53.020;6.576;2022-12-19T09:53:28;37.28;;;18.80;;
56114;SDS011;41988;53.020;6.576;2022-12-19T09:56:15;44.85;;;19.10;;
56114;SDS011;41988;53.020;6.576;2022-12-19T09:59:07;38.42;;;19.95;;
56114;SDS011;41988;53.020;6.576;2022-12-19T10:01:56;37.28;;;20.60;;
56114;SDS011;41988;53.020;6.576;2022-12-19T10:04:47;38.35;;;20.20;;
56114;SDS011;41988;53.020;6.576;2022-12-19T10:07:34;34.08;;;18.45;;
56114;SDS011;41988;53.020;6.576;2022-12-19T10:10:21;36.03;;;17.70;;
56114;SDS011;41988;53.020;6.576;2022-12-19T10:36:59;28.00;;;17.25;;
56114;SDS011;41988;53.020;6.576;2022-12-19T10:39:47;30.85;;;18.52;;
56114;SDS011;41988;53.020;6.576;2022-12-19T10:42:50;37.55;;;16.95;;
56114;SDS011;41988;53.020;6.576;2022-12-19T10:45:48;38.78;;;17.77;;
56114;SDS011;41988;53.020;6.576;2022-12-19T10:48:33;29.73;;;16.70;;
56114;SDS011;41988;53.020;6.576;2022-12-19T10:51:21;27.38;;;17.30;;
56114;SDS011;41988;53.020;6.576;2022-12-19T10:54:07;26.92;;;16.75;;
56114;SDS011;41988;53.020;6.576;2022-12-19T10:56:52;27.40;;;16.30;;
56114;SDS011;41988;53.020;6.576;2022-12-19T10:59:38;28.55;;;16.67;;
56114;SDS011;41988;53.020;6.576;2022-12-19T11:02:31;28.35;;;16.85;;
56114;SDS011;41988;53.020;6.576;2022-12-19T11:10:56;24.90;;;15.52;;
56114;SDS011;41988;53.020;6.576;2022-12-19T11:13:45;25.25;;;15.48;;
56114;SDS011;41988;53.020;6.576;2022-12-19T11:16:34;27.17;;;14.30;;
56114;SDS011;41988;53.020;6.576;2022-12-19T11:19:19;26.02;;;15.45;;
56114;SDS011;41988;53.020;6.576;2022-12-19T11:22:06;22.48;;;14.85;;
56114;SDS011;41988;53.020;6.576;2022-12-19T11:24:53;26.75;;;15.70;;
56114;SDS011;41988;53.020;6.576;2022-12-19T11:30:23;22.27;;;14.20;;
56114;SDS011;41988;53.020;6.576;2022-12-19T11:33:14;24.75;;;13.88;;
56114;SDS011;41988;53.020;6.576;2022-12-19T11:36:00;26.17;;;13.43;;
56114;SDS011;41988;53.020;6.576;2022-12-19T11:38:45;25.02;;;14.25;;
56114;SDS011;41988;53.020;6.576;2022-12-19T11:42:24;22.33;;;14.20;;
56114;SDS011;41988;53.020;6.576;2022-12-19T11:44:53;21.65;;;13.55;;
56114;SDS011;41988;53.020;6.576;2022-12-19T11:48:00;23.33;;;14.32;;
56114;SDS011;41988;53.020;6.576;2022-12-19T11:51:00;25.08;;;13.98;;
56114;SDS011;41988;53.020;6.576;2022-12-19T11:56:38;21.92;;;13.90;;
56114;SDS011;41988;53.020;6.576;2022-12-19T12:11:21;16.83;;;11.73;;
56114;SDS011;41988;53.020;6.576;2022-12-19T12:14:11;21.73;;;12.00;;
56114;SDS011;41988;53.020;6.576;2022-12-19T12:20:18;20.55;;;11.10;;
56114;SDS011;41988;53.020;6.576;2022-12-19T12:23:24;18.27;;;11.13;;
56114;SDS011;41988;53.020;6.576;2022-12-19T12:29:23;14.85;;;10.27;;
56114;SDS011;41988;53.020;6.576;2022-12-19T12:35:13;20.33;;;11.15;;
56114;SDS011;41988;53.020;6.576;2022-12-19T12:41:03;16.67;;;10.55;;
56114;SDS011;41988;53.020;6.576;2022-12-19T12:46:43;17.17;;;10.23;;
56114;SDS011;41988;53.020;6.576;2022-12-19T12:49:42;14.52;;;10.60;;
56114;SDS011;41988;53.020;6.576;2022-12-19T12:55:31;17.58;;;11.65;;
56114;SDS011;41988;53.020;6.576;2022-12-19T13:01:35;17.90;;;10.95;;
56114;SDS011;41988;53.020;6.576;2022-12-19T13:04:23;15.57;;;10.23;;
56114;SDS011;41988;53.020;6.576;2022-12-19T13:07:14;14.45;;;10.30;;
56114;SDS011;41988;53.020;6.576;2022-12-19T13:13:10;17.88;;;11.45;;
56114;SDS011;41988;53.020;6.576;2022-12-19T13:15:58;19.08;;;11.60;;
56114;SDS011;41988;53.020;6.576;2022-12-19T13:18:42;17.98;;;12.68;;
56114;SDS011;41988;53.020;6.576;2022-12-19T13:24:51;19.90;;;11.68;;
56114;SDS011;41988;53.020;6.576;2022-12-19T13:27:37;17.60;;;11.02;;
56114;SDS011;41988;53.020;6.576;2022-12-19T13:30:23;17.63;;;11.70;;
56114;SDS011;41988;53.020;6.576;2022-12-19T13:33:08;18.38;;;12.63;;
56114;SDS011;41988;53.020;6.576;2022-12-19T13:35:53;19.08;;;13.63;;
56114;SDS011;41988;53.020;6.576;2022-12-19T13:38:43;21.75;;;13.35;;
56114;SDS011;41988;53.020;6.576;2022-12-19T13:41:31;23.48;;;14.90;;
56114;SDS011;41988;53.020;6.576;2022-12-19T13:44:42;22.08;;;14.57;;
56114;SDS011;41988;53.020;6.576;2022-12-19T13:47:34;23.42;;;15.32;;
56114;SDS011;41988;53.020;6.576;2022-12-19T13:50:24;26.35;;;13.88;;
56114;SDS011;41988;53.020;6.576;2022-12-19T13:53:14;24.58;;;14.45;;
56114;SDS011;41988;53.020;6.576;2022-12-19T14:01:32;19.02;;;13.45;;
56114;SDS011;41988;53.020;6.576;2022-12-19T14:04:28;20.75;;;12.60;;
56114;SDS011;41988;53.020;6.576;2022-12-19T14:07:26;21.02;;;13.43;;
56114;SDS011;41988;53.020;6.576;2022-12-19T14:10:26;16.50;;;11.13;;
56114;SDS011;41988;53.020;6.576;2022-12-19T14:13:15;19.70;;;12.88;;
56114;SDS011;41988;53.020;6.576;2022-12-19T14:16:39;19.15;;;12.55;;
56114;SDS011;41988;53.020;6.576;2022-12-19T14:19:24;17.48;;;10.98;;
56114;SDS011;41988;53.020;6.576;2022-12-19T14:22:19;17.83;;;11.52;;
56114;SDS011;41988;53.020;6.576;2022-12-19T14:25:08;21.58;;;12.05;;
56114;SDS011;41988;53.020;6.576;2022-12-19T14:28:37;19.08;;;11.75;;
56114;SDS011;41988;53.020;6.576;2022-12-19T14:31:04;17.80;;;10.88;;
56114;SDS011;41988;53.020;6.576;2022-12-19T14:33:54;17.35;;;10.18;;
56114;SDS011;41988;53.020;6.576;2022-12-19T14:36:39;14.57;;;9.85;;
56114;SDS011;41988;53.020;6.576;2022-12-19T14:39:32;16.58;;;10.35;;
56114;SDS011;41988;53.020;6.576;2022-12-19T14:42:18;17.52;;;10.02;;
56114;SDS011;41988;53.020;6.576;2022-12-19T14:56:50;15.02;;;8.63;;
56114;SDS011;41988;53.020;6.576;2022-12-19T14:59:42;12.15;;;8.68;;
56114;SDS011;41988;53.020;6.576;2022-12-19T15:02:30;11.98;;;8.60;;
56114;SDS011;41988;53.020;6.576;2022-12-19T15:05:16;13.68;;;8.25;;
56114;SDS011;41988;53.020;6.576;2022-12-19T15:08:02;10.90;;;7.78;;
56114;SDS011;41988;53.020;6.576;2022-12-19T15:10:56;11.00;;;7.45;;
56114;SDS011;41988;53.020;6.576;2022-12-19T15:14:05;11.95;;;6.88;;
56114;SDS011;41988;53.020;6.576;2022-12-19T15:16:59;14.13;;;8.00;;
56114;SDS011;41988;53.020;6.576;2022-12-19T15:19:43;13.38;;;8.25;;
56114;SDS011;41988;53.020;6.576;2022-12-19T15:22:28;10.18;;;7.68;;
56114;SDS011;41988;53.020;6.576;2022-12-19T15:25:13;12.98;;;7.40;;
56114;SDS011;41988;53.020;6.576;2022-12-19T15:27:59;11.15;;;7.65;;
56114;SDS011;41988;53.020;6.576;2022-12-19T15:30:45;11.77;;;7.13;;
56114;SDS011;41988;53.020;6.576;2022-12-19T15:33:31;14.05;;;7.85;;
56114;SDS011;41988;53.020;6.576;2022-12-19T15:36:16;9.07;;;6.78;;
56114;SDS011;41988;53.020;6.576;2022-12-19T15:39:00;12.82;;;7.88;;
56114;SDS011;41988;53.020;6.576;2022-12-19T15:41:47;12.30;;;7.43;;
56114;SDS011;41988;53.020;6.576;2022-12-19T15:44:33;13.10;;;8.57;;
56114;SDS011;41988;53.020;6.576;2022-12-19T15:50:18;13.10;;;8.50;;
56114;SDS011;41988;53.020;6.576;2022-12-19T15:53:04;15.93;;;8.73;;
56114;SDS011;41988;53.020;6.576;2022-12-19T15:55:56;10.70;;;8.15;;
56114;SDS011;41988;53.020;6.576;2022-12-19T15:58:42;18.30;;;9.68;;
56114;SDS011;41988;53.020;6.576;2022-12-19T16:01:27;15.50;;;9.20;;
56114;SDS011;41988;53.020;6.576;2022-12-19T16:04:15;16.00;;;9.05;;
56114;SDS011;41988;53.020;6.576;2022-12-19T16:06:59;15.63;;;9.30;;
56114;SDS011;41988;53.020;6.576;2022-12-19T16:09:44;15.23;;;9.23;;
56114;SDS011;41988;53.020;6.576;2022-12-19T16:12:36;16.42;;;10.05;;
56114;SDS011;41988;53.020;6.576;2022-12-19T16:15:28;14.32;;;9.73;;
56114;SDS011;41988;53.020;6.576;2022-12-19T16:25:17;15.55;;;10.55;;
56114;SDS011;41988;53.020;6.576;2022-12-19T16:28:02;19.48;;;10.32;;
56114;SDS011;41988;53.020;6.576;2022-12-19T16:30:48;17.73;;;10.27;;
56114;SDS011;41988;53.020;6.576;2022-12-19T16:33:33;17.30;;;10.05;;
56114;SDS011;41988;53.020;6.576;2022-12-19T16:36:17;16.92;;;9.52;;
56114;SDS011;41988;53.020;6.576;2022-12-19T16:39:02;18.83;;;11.75;;
56114;SDS011;41988;53.020;6.576;2022-12-19T16:41:46;15.63;;;10.48;;
56114;SDS011;41988;53.020;6.576;2022-12-19T16:44:32;19.83;;;13.35;;
56114;SDS011;41988;53.020;6.576;2022-12-19T16:47:18;17.67;;;11.70;;
56114;SDS011;41988;53.020;6.576;2022-12-19T16:50:12;17.35;;;9.90;;
56114;SDS011;41988;53.020;6.576;2022-12-19T16:52:58;18.50;;;10.98;;
56114;SDS011;41988;53.020;6.576;2022-12-19T16:55:43;18.85;;;10.27;;
56114;SDS011;41988;53.020;6.576;2022-12-19T16:58:28;15.48;;;9.65;;
56114;SDS011;41988;53.020;6.576;2022-12-19T17:01:13;17.98;;;10.73;;
56114;SDS011;41988;53.020;6.576;2022-12-19T17:03:57;15.73;;;9.93;;
56114;SDS011;41988;53.020;6.576;2022-12-19T17:06:42;18.38;;;9.48;;
56114;SDS011;41988;53.020;6.576;2022-12-19T17:09:27;17.67;;;10.13;;
56114;SDS011;41988;53.020;6.576;2022-12-19T17:12:14;15.98;;;10.20;;
56114;SDS011;41988;53.020;6.576;2022-12-19T17:15:01;14.25;;;9.95;;
56114;SDS011;41988;53.020;6.576;2022-12-19T17:17:50;15.55;;;9.57;;
56114;SDS011;41988;53.020;6.576;2022-12-19T17:20:37;19.95;;;11.45;;
56114;SDS011;41988;53.020;6.576;2022-12-19T17:23:23;16.33;;;10.63;;
56114;SDS011;41988;53.020;6.576;2022-12-19T17:26:08;17.25;;;11.15;;
56114;SDS011;41988;53.020;6.576;2022-12-19T17:28:52;19.75;;;10.65;;
56114;SDS011;41988;53.020;6.576;2022-12-19T17:31:38;15.82;;;10.15;;
56114;SDS011;41988;53.020;6.576;2022-12-19T17:37:08;22.30;;;11.23;;
56114;SDS011;41988;53.020;6.576;2022-12-19T17:39:57;18.15;;;10.85;;
56114;SDS011;41988;53.020;6.576;2022-12-19T17:42:41;19.77;;;11.02;;
56114;SDS011;41988;53.020;6.576;2022-12-19T17:45:27;16.70;;;10.20;;
56114;SDS011;41988;53.020;6.576;2022-12-19T17:48:16;15.25;;;10.30;;
56114;SDS011;41988;53.020;6.576;2022-12-19T17:51:02;16.88;;;9.95;;
56114;SDS011;41988;53.020;6.576;2022-12-19T17:53:47;18.15;;;10.13;;
56114;SDS011;41988;53.020;6.576;2022-12-19T17:56:32;16.15;;;10.32;;
56114;SDS011;41988;53.020;6.576;2022-12-19T17:59:16;17.15;;;10.88;;
56114;SDS011;41988;53.020;6.576;2022-12-19T18:02:01;16.13;;;9.70;;
56114;SDS011;41988;53.020;6.576;2022-12-19T18:04:46;17.42;;;9.65;;
56114;SDS011;41988;53.020;6.576;2022-12-19T18:07:31;16.20;;;9.63;;
56114;SDS011;41988;53.020;6.576;2022-12-19T18:10:16;18.10;;;9.85;;
56114;SDS011;41988;53.020;6.576;2022-12-19T18:13:01;16.35;;;9.40;;
56114;SDS011;41988;53.020;6.576;2022-12-19T18:15:48;15.25;;;10.15;;
56114;SDS011;41988;53.020;6.576;2022-12-19T18:18:34;13.98;;;9.23;;
56114;SDS011;41988;53.020;6.576;2022-12-19T18:21:20;17.15;;;9.68;;
56114;SDS011;41988;53.020;6.576;2022-12-19T18:24:10;14.80;;;8.98;;
56114;SDS011;41988;53.020;6.576;2022-12-19T18:26:55;19.17;;;8.75;;
56114;SDS011;41988;53.020;6.576;2022-12-19T18:29:40;20.40;;;11.20;;
56114;SDS011;41988;53.020;6.576;2022-12-19T18:32:24;18.17;;;9.32;;
56114;SDS011;41988;53.020;6.576;2022-12-19T18:35:16;14.73;;;9.50;;